createdAt,value
2023-03-01T00:08:28.776Z,82.14
2023-03-01T00:18:51.513Z,82.61
2023-03-01T00:29:12.881Z,82.73
2023-03-01T00:39:34.313Z,83.04
2023-03-01T00:49:55.659Z,82.95
2023-03-01T01:00:17.241Z,82.69
2023-03-01T01:10:38.857Z,83.27
2023-03-01T01:21:04.536Z,83.44
2023-03-01T01:31:26.780Z,83.07
2023-03-01T01:41:48.622Z,83.36
2023-03-01T01:52:18.602Z,83.94
2023-03-01T02:02:42.132Z,83.81
2023-03-01T02:13:03.827Z,83.83
2023-03-01T02:23:26.506Z,83.12
2023-03-01T02:33:49.428Z,83.20
2023-03-01T02:44:10.865Z,84.27
2023-03-01T02:54:44.426Z,83.47
2023-03-01T03:05:07.062Z,82.38
2023-03-01T03:15:29.922Z,82.47
2023-03-01T03:25:51.363Z,82.29
2023-03-01T03:36:18.709Z,83.14
2023-03-01T03:46:40.047Z,82.34
2023-03-01T03:57:01.408Z,83.34
2023-03-01T04:07:22.800Z,83.54
2023-03-01T04:17:45.489Z,83.03
2023-03-01T04:28:07.290Z,83.15
2023-03-01T04:38:28.652Z,82.98
2023-03-01T04:48:50.141Z,83.05
2023-03-01T04:59:13.503Z,82.72
2023-03-01T05:09:34.943Z,83.61
2023-03-01T05:19:56.544Z,83.83
2023-03-01T05:30:18.543Z,83.02
2023-03-01T05:40:40.190Z,82.87
2023-03-01T05:51:01.688Z,83.13
2023-03-01T06:01:23.056Z,82.84
2023-03-01T06:11:44.931Z,82.87
2023-03-01T06:22:06.317Z,83.84
2023-03-01T06:32:27.782Z,83.23
2023-03-01T06:42:50.368Z,83.10
2023-03-01T06:53:11.913Z,83.39
2023-03-01T07:03:33.251Z,83.59
2023-03-01T07:13:55.068Z,84.95
2023-03-01T07:24:16.441Z,84.75
2023-03-01T07:34:37.888Z,85.91
2023-03-01T07:44:59.248Z,84.99
2023-03-01T07:55:21.132Z,84.54
2023-03-01T08:05:42.504Z,83.66
2023-03-01T08:16:04.912Z,83.14
2023-03-01T08:26:26.316Z,83.32
2023-03-01T08:36:47.756Z,82.73
2023-03-01T08:47:09.134Z,80.84
2023-03-01T08:57:30.576Z,81.48
2023-03-01T09:07:51.975Z,80.19
2023-03-01T09:18:13.441Z,79.60
2023-03-01T09:28:34.821Z,79.11
2023-03-01T09:38:56.250Z,78.33
2023-03-01T09:49:26.327Z,77.22
2023-03-01T10:00:01.801Z,73.74
2023-03-01T10:10:34.390Z,73.38
2023-03-01T10:21:16.826Z,73.30
2023-03-01T10:31:44.212Z,71.36
2023-03-01T10:42:07.115Z,71.52
2023-03-01T10:52:30.941Z,71.16
2023-03-01T11:03:03.692Z,71.59
2023-03-01T11:13:25.049Z,72.08
2023-03-01T11:23:47.858Z,72.53
2023-03-01T11:34:12.731Z,71.46
2023-03-01T11:44:36.385Z,73.05
2023-03-01T11:54:57.937Z,72.54
2023-03-01T12:05:31.460Z,72.75
2023-03-01T12:15:55.824Z,73.23
2023-03-01T12:26:32.680Z,73.84
2023-03-01T12:36:54.112Z,74.24
2023-03-01T12:47:15.475Z,73.88
2023-03-01T12:57:44.935Z,73.50
2023-03-01T13:08:06.337Z,73.65
2023-03-01T13:18:29.469Z,73.16
2023-03-01T13:28:51.094Z,74.32
2023-03-01T13:39:32.386Z,73.84
2023-03-01T13:49:58.236Z,73.02
2023-03-01T14:00:30.569Z,74.31
2023-03-01T14:11:12.398Z,73.70
2023-03-01T14:21:33.845Z,73.82
2023-03-01T14:31:55.422Z,73.27
2023-03-01T14:42:17.139Z,74.15
2023-03-01T14:52:39.972Z,73.48
2023-03-01T15:03:10.814Z,74.84
2023-03-01T15:13:33.707Z,74.57
2023-03-01T15:23:58.231Z,75.34
2023-03-01T15:34:24.438Z,74.30
2023-03-01T15:44:46.305Z,75.35
2023-03-01T15:55:16.553Z,75.23
2023-03-01T16:05:38.504Z,74.99
2023-03-01T16:16:00.134Z,75.01
2023-03-01T16:26:21.741Z,75.38
2023-03-01T16:36:43.660Z,75.43
2023-03-01T16:47:05.044Z,76.37
2023-03-01T16:57:26.462Z,77.64
2023-03-01T17:07:47.889Z,79.62
2023-03-01T17:18:09.935Z,82.28
2023-03-01T17:28:33.215Z,83.11
2023-03-01T17:38:54.782Z,84.52
2023-03-01T17:49:17.901Z,84.03
2023-03-01T17:59:39.319Z,84.48
2023-03-01T18:10:00.693Z,85.36
2023-03-01T18:20:22.115Z,86.39
2023-03-01T18:30:43.505Z,87.37
2023-03-01T18:41:04.896Z,88.04
2023-03-01T18:51:27.629Z,87.64
2023-03-01T19:01:49.179Z,88.74
2023-03-01T19:12:10.634Z,89.04
2023-03-01T19:22:32.008Z,89.04
2023-03-01T19:32:53.844Z,88.87
2023-03-01T19:43:15.363Z,89.72
2023-03-01T19:53:37.771Z,89.11
2023-03-01T20:03:59.261Z,89.31
2023-03-01T20:14:23.739Z,87.97
2023-03-01T20:24:45.508Z,88.40
2023-03-01T20:35:07.206Z,87.78
2023-03-01T20:45:28.758Z,87.82
2023-03-01T20:55:50.106Z,87.25
2023-03-01T21:06:11.475Z,87.57
2023-03-01T21:16:33.690Z,88.03
2023-03-01T21:26:55.404Z,87.94
2023-03-01T21:37:17.779Z,87.86
2023-03-01T21:47:40.227Z,88.08
2023-03-01T21:58:01.574Z,88.54
2023-03-01T22:08:22.998Z,89.04
2023-03-01T22:18:44.458Z,88.36
2023-03-01T22:29:10.743Z,89.07
2023-03-01T22:39:32.133Z,89.00
2023-03-01T22:49:56.774Z,89.60
2023-03-01T23:00:20.100Z,89.92
2023-03-01T23:10:41.602Z,89.78
2023-03-01T23:21:10.458Z,90.05
2023-03-01T23:31:31.877Z,90.00
2023-03-01T23:41:53.499Z,90.58
2023-03-01T23:52:17.256Z,90.35
